Spring Valley Lake, California
Current Conditions -  °F | °C
As of 4:15 PM on Tuesday 25 Nov 2014 (Local Time) from KVCV Reporting Station
Clear Clear  
Wind Chill: 64°   Ceiling: Unl
Heat Index: 64°   Visibility: 10mi
Dew Point:   Wind: 3mph
Humidity: 10%   Direction: 40°NE
Pressure: 30.38"   Gusts: NA
Location:  34.483°N, 117.376°W
Report Text: KVCV 260015Z AUTO 04003KT 10SM CLR 18/M14 A3038 RMK AO2
Loading
Personal Weather Stations






























Interactive Weather Map New forecast layout! Learn more

10-Day Weather Forecast

Advertisements
Track Severe Weather on mobile